createdAt,value
2022-11-23T00:01:23.425Z,99711.20
2022-11-23T00:03:54.000Z,99709.14
2022-11-23T00:06:23.070Z,99711.70
2022-11-23T00:08:51.927Z,99714.60
2022-11-23T00:11:21.904Z,99714.94
2022-11-23T00:13:49.824Z,99715.98
2022-11-23T00:16:20.478Z,99713.15
2022-11-23T00:18:48.631Z,99710.73
2022-11-23T00:21:17.738Z,99706.83
2022-11-23T00:23:45.695Z,99702.89
2022-11-23T00:26:14.193Z,99697.73
2022-11-23T00:28:42.231Z,99699.74
2022-11-23T00:31:13.755Z,99707.02
2022-11-23T00:33:42.225Z,99706.30
2022-11-23T00:36:15.239Z,99702.54
2022-11-23T00:38:44.145Z,99704.42
2022-11-23T00:41:18.936Z,99701.89
2022-11-23T00:43:47.489Z,99693.52
2022-11-23T00:46:17.842Z,99695.80
2022-11-23T00:48:48.216Z,99695.81
2022-11-23T00:51:19.277Z,99694.65
2022-11-23T00:53:47.308Z,99700.14
2022-11-23T00:56:16.316Z,99700.85
2022-11-23T00:58:51.851Z,99698.71
2022-11-23T01:01:22.928Z,99697.58
2022-11-23T01:03:53.712Z,99699.74
2022-11-23T01:06:24.366Z,99696.91
2022-11-23T01:08:58.951Z,99697.36
2022-11-23T01:11:29.165Z,99691.86
2022-11-23T01:13:56.967Z,99688.17
2022-11-23T01:16:30.915Z,99689.02
2022-11-23T01:19:03.656Z,99691.36
2022-11-23T01:21:33.917Z,99690.00
2022-11-23T01:24:09.243Z,99685.86
2022-11-23T01:26:40.952Z,99684.95
2022-11-23T01:29:08.917Z,99679.52
2022-11-23T01:31:45.950Z,99684.17
2022-11-23T01:34:16.032Z,99684.90
2022-11-23T01:36:44.470Z,99683.69
2022-11-23T01:39:12.484Z,99680.20
2022-11-23T01:41:43.022Z,99680.27
2022-11-23T01:44:24.102Z,99683.98
2022-11-23T01:46:57.137Z,99688.02
2022-11-23T01:49:27.655Z,99686.26
2022-11-23T01:51:59.954Z,99691.74
2022-11-23T01:54:48.086Z,99689.73
2022-11-23T01:57:26.470Z,99684.23
2022-11-23T01:59:55.513Z,99683.59
2022-11-23T02:02:23.910Z,99686.34
2022-11-23T02:04:55.103Z,99685.63
2022-11-23T02:07:24.278Z,99685.56
2022-11-23T02:09:52.752Z,99690.35
2022-11-23T02:12:20.517Z,99692.45
2022-11-23T02:14:48.187Z,99690.62
2022-11-23T02:17:17.273Z,99693.66
2022-11-23T02:20:06.678Z,99701.48
2022-11-23T02:23:06.135Z,99709.30
2022-11-23T02:25:52.632Z,99713.30
2022-11-23T02:28:32.821Z,99718.43
2022-11-23T02:31:02.132Z,99713.43
2022-11-23T02:33:30.650Z,99716.33
2022-11-23T02:36:00.831Z,99722.77
2022-11-23T02:38:32.924Z,99721.71
2022-11-23T02:41:01.082Z,99718.80
2022-11-23T02:43:28.815Z,99719.91
2022-11-23T02:45:59.497Z,99713.84
2022-11-23T02:48:29.402Z,99710.80
2022-11-23T02:50:57.111Z,99711.50
2022-11-23T02:53:25.123Z,99712.48
2022-11-23T02:55:54.069Z,99711.15
2022-11-23T02:58:21.720Z,99714.94
2022-11-23T03:00:49.443Z,99719.72
2022-11-23T03:03:18.447Z,99723.45
2022-11-23T03:05:46.070Z,99728.52
2022-11-23T03:08:13.902Z,99729.63
2022-11-23T03:10:41.657Z,99727.92
2022-11-23T03:13:09.822Z,99721.65
2022-11-23T03:15:38.731Z,99722.71
2022-11-23T03:18:06.687Z,99727.02
2022-11-23T03:20:34.477Z,99727.23
2022-11-23T03:23:02.318Z,99726.23
2022-11-23T03:25:30.007Z,99722.75
2022-11-23T03:27:57.901Z,99726.23
2022-11-23T03:30:25.656Z,99730.33
2022-11-23T03:32:54.464Z,99734.91
2022-11-23T03:35:22.271Z,99737.42
2022-11-23T03:38:19.154Z,99740.95
2022-11-23T03:40:47.579Z,99740.80
2022-11-23T03:43:35.599Z,99738.77
2022-11-23T03:46:03.394Z,99734.84
2022-11-23T03:48:31.189Z,99735.63
2022-11-23T03:50:59.042Z,99733.61
2022-11-23T03:53:26.742Z,99733.12
2022-11-23T03:55:56.276Z,99731.59
2022-11-23T03:58:24.980Z,99728.56
2022-11-23T04:00:52.837Z,99731.15
2022-11-23T04:03:20.729Z,99739.58
2022-11-23T04:06:03.517Z,99739.35
2022-11-23T04:08:50.312Z,99740.98
2022-11-23T04:11:24.629Z,99741.27
2022-11-23T04:13:52.335Z,99740.20
2022-11-23T04:16:20.185Z,99741.90
2022-11-23T04:18:48.030Z,99740.00
2022-11-23T04:21:15.743Z,99739.58
2022-11-23T04:23:44.233Z,99737.95
2022-11-23T04:26:12.306Z,99733.69
2022-11-23T04:28:42.195Z,99737.44
2022-11-23T04:31:10.486Z,99739.25
2022-11-23T04:33:49.359Z,99734.61
2022-11-23T04:36:18.341Z,99731.95
2022-11-23T04:38:46.061Z,99726.56
2022-11-23T04:41:15.533Z,99726.13
2022-11-23T04:43:43.192Z,99724.70
2022-11-23T04:46:12.461Z,99721.72
2022-11-23T04:48:40.185Z,99719.96
2022-11-23T04:51:08.461Z,99721.20
2022-11-23T04:53:38.010Z,99723.98
2022-11-23T04:56:06.479Z,99722.55
2022-11-23T04:58:37.330Z,99720.86
2022-11-23T05:01:05.970Z,99722.48
2022-11-23T05:03:35.419Z,99726.07
2022-11-23T05:06:07.425Z,99726.02
2022-11-23T05:08:39.933Z,99727.23
2022-11-23T05:11:22.663Z,99725.55
2022-11-23T05:13:50.832Z,99723.25
2022-11-23T05:16:18.839Z,99724.13
2022-11-23T05:18:46.528Z,99720.23
2022-11-23T05:21:14.313Z,99724.84
2022-11-23T05:23:42.572Z,99725.75
2022-11-23T05:26:10.892Z,99730.89
2022-11-23T05:28:41.444Z,99728.02
2022-11-23T05:31:12.351Z,99726.11
2022-11-23T05:33:40.545Z,99730.89
2022-11-23T05:36:09.670Z,99735.54
2022-11-23T05:38:41.752Z,99731.42
2022-11-23T05:41:13.781Z,99735.39
2022-11-23T05:43:43.889Z,99735.96
2022-11-23T05:46:14.083Z,99735.13
2022-11-23T05:48:42.037Z,99733.52
2022-11-23T05:51:11.392Z,99727.67
2022-11-23T05:53:44.387Z,99728.06
2022-11-23T05:56:38.911Z,99730.20
2022-11-23T05:59:16.341Z,99732.31
2022-11-23T06:01:47.655Z,99738.38
2022-11-23T06:04:21.460Z,99738.11
2022-11-23T06:06:51.998Z,99739.50
2022-11-23T06:09:20.857Z,99737.38
2022-11-23T06:11:49.614Z,99739.64
2022-11-23T06:14:20.930Z,99740.39
2022-11-23T06:16:48.871Z,99743.43
2022-11-23T06:19:37.191Z,99733.88
2022-11-23T06:22:05.544Z,99734.94
2022-11-23T06:24:36.117Z,99740.52
2022-11-23T06:27:33.072Z,99747.30
2022-11-23T06:30:01.128Z,99751.23
2022-11-23T06:32:29.046Z,99744.34
2022-11-23T06:35:00.766Z,99746.90
2022-11-23T06:37:30.434Z,99743.67
2022-11-23T06:39:58.100Z,99746.67
2022-11-23T06:42:42.056Z,99746.83
2022-11-23T06:45:17.080Z,99752.34
2022-11-23T06:47:45.240Z,99755.52
2022-11-23T06:50:14.520Z,99761.56
2022-11-23T06:52:43.681Z,99765.31
2022-11-23T06:55:11.553Z,99763.10
2022-11-23T06:57:41.701Z,99770.83
2022-11-23T07:00:11.390Z,99774.41
2022-11-23T07:02:39.392Z,99777.20
2022-11-23T07:28:25.679Z,99783.70
2022-11-23T07:30:54.077Z,99789.23
2022-11-23T07:33:22.161Z,99789.08
2022-11-23T07:35:50.116Z,99784.27
2022-11-23T07:38:17.978Z,99787.39
2022-11-23T07:40:51.264Z,99782.56
2022-11-23T07:43:36.763Z,99786.09
2022-11-23T07:46:04.588Z,99787.30
2022-11-23T07:48:36.330Z,99784.87
2022-11-23T07:51:04.468Z,99781.04
2022-11-23T07:53:32.115Z,99789.19
2022-11-23T07:55:59.777Z,99789.01
2022-11-23T07:58:27.668Z,99788.77
2022-11-23T08:00:55.501Z,99791.21
2022-11-23T08:03:28.172Z,99793.31
2022-11-23T08:05:56.805Z,99798.88
2022-11-23T08:08:24.933Z,99799.36
2022-11-23T08:10:54.270Z,99806.28
2022-11-23T08:13:22.526Z,99796.92
2022-11-23T08:15:54.772Z,99806.63
2022-11-23T08:18:24.306Z,99804.36
2022-11-23T08:20:52.722Z,99802.63
2022-11-23T08:23:21.102Z,99800.75
2022-11-23T08:25:50.246Z,99801.29
2022-11-23T08:28:18.355Z,99801.36
2022-11-23T08:30:46.578Z,99797.73
2022-11-23T08:33:15.182Z,99802.42
2022-11-23T08:35:44.220Z,99803.67
2022-11-23T08:38:13.047Z,99799.05
2022-11-23T08:40:41.243Z,99793.04
2022-11-23T08:43:09.068Z,99794.77
2022-11-23T08:45:36.905Z,99800.73
2022-11-23T08:48:05.049Z,99798.94
2022-11-23T08:50:34.548Z,99799.59
2022-11-23T08:53:02.576Z,99807.33
2022-11-23T08:55:30.415Z,99807.95
2022-11-23T08:57:59.430Z,99806.64
2022-11-23T09:00:28.199Z,99810.34
2022-11-23T09:02:59.949Z,99813.44
2022-11-23T09:05:29.694Z,99810.73
2022-11-23T09:08:01.584Z,99806.99
2022-11-23T09:10:29.959Z,99805.13
2022-11-23T09:12:59.184Z,99808.83
2022-11-23T09:15:26.965Z,99802.91
2022-11-23T09:17:54.765Z,99804.23
2022-11-23T09:20:22.780Z,99806.10
2022-11-23T09:22:52.498Z,99802.16
2022-11-23T09:25:21.023Z,99806.09
2022-11-23T09:27:49.612Z,99805.42
2022-11-23T09:30:17.456Z,99801.33
2022-11-23T09:32:45.228Z,99803.14
2022-11-23T09:35:13.016Z,99804.18
2022-11-23T09:37:40.860Z,99802.05
2022-11-23T09:40:14.928Z,99797.68
2022-11-23T09:43:24.106Z,99795.02
2022-11-23T09:45:54.905Z,99789.70
2022-11-23T09:48:52.039Z,99783.77
2022-11-23T09:51:23.286Z,99774.59
2022-11-23T09:54:02.956Z,99777.98
2022-11-23T09:56:34.059Z,99777.83
2022-11-23T09:59:10.680Z,99776.92
2022-11-23T10:01:38.879Z,99774.40
2022-11-23T10:04:07.393Z,99778.23
2022-11-23T10:06:40.450Z,99779.16
2022-11-23T10:09:17.397Z,99780.84
2022-11-23T10:12:05.426Z,99784.16
2022-11-23T10:14:33.659Z,99775.79
2022-11-23T10:17:07.231Z,99776.45
2022-11-23T10:20:13.299Z,99773.95
2022-11-23T10:22:56.274Z,99775.23
2022-11-23T10:25:25.727Z,99774.45
2022-11-23T10:28:00.689Z,99769.60
2022-11-23T10:30:28.571Z,99769.88
2022-11-23T10:32:56.357Z,99771.90
2022-11-23T10:35:33.247Z,99774.09
2022-11-23T10:38:21.898Z,99777.25
2022-11-23T10:40:57.257Z,99770.32
2022-11-23T10:43:29.557Z,99764.37
2022-11-23T10:46:24.409Z,99762.55
2022-11-23T10:48:53.751Z,99763.44
2022-11-23T10:51:24.459Z,99760.38
2022-11-23T10:53:59.548Z,99753.24
2022-11-23T10:56:32.753Z,99748.03
2022-11-23T10:59:00.514Z,99742.81
2022-11-23T11:01:30.258Z,99740.61
2022-11-23T11:04:04.012Z,99739.48
2022-11-23T11:06:36.058Z,99733.64
2022-11-23T11:09:09.515Z,99736.40
2022-11-23T11:11:46.659Z,99736.68
2022-11-23T11:14:17.435Z,99739.08
2022-11-23T11:16:58.452Z,99739.70
2022-11-23T11:19:32.489Z,99738.08
2022-11-23T11:22:21.457Z,99744.20
2022-11-23T11:24:49.493Z,99747.23
2022-11-23T11:27:21.729Z,99749.06
2022-11-23T11:29:53.238Z,99745.14
2022-11-23T11:32:34.318Z,99745.68
2022-11-23T11:35:22.575Z,99740.56
2022-11-23T11:37:51.832Z,99736.46
2022-11-23T11:40:38.508Z,99738.55
2022-11-23T11:43:27.046Z,99737.77
2022-11-23T11:48:55.691Z,99746.53
2022-11-23T11:51:32.224Z,99744.06
2022-11-23T11:54:13.805Z,99741.63
2022-11-23T11:56:45.376Z,99744.16
2022-11-23T11:59:33.335Z,99746.08
2022-11-23T12:02:19.542Z,99746.77
2022-11-23T12:05:10.147Z,99749.20
2022-11-23T12:07:53.431Z,99754.52
2022-11-23T12:10:48.507Z,99756.83
2022-11-23T12:13:19.602Z,99758.83
2022-11-23T12:16:14.942Z,99759.30
2022-11-23T12:19:06.726Z,99756.83
2022-11-23T12:21:57.289Z,99753.87
2022-11-23T12:25:11.529Z,99743.89
2022-11-23T12:27:57.751Z,99743.16
2022-11-23T12:30:40.589Z,99740.59
2022-11-23T12:33:23.525Z,99738.38
2022-11-23T12:36:02.040Z,99742.73
2022-11-23T12:38:55.301Z,99736.45
2022-11-23T12:41:24.012Z,99734.68
2022-11-23T12:44:33.452Z,99737.65
2022-11-23T12:47:13.272Z,99727.16
2022-11-23T12:49:51.954Z,99719.79
2022-11-23T12:52:35.632Z,99718.21
2022-11-23T12:55:20.501Z,99713.95
2022-11-23T12:58:00.297Z,99711.65
2022-11-23T13:00:37.584Z,99702.88
2022-11-23T13:03:18.093Z,99703.40
2022-11-23T13:06:07.651Z,99707.35
2022-11-23T13:08:35.381Z,99712.59
2022-11-23T13:11:09.068Z,99712.67
2022-11-23T13:13:55.490Z,99710.56
2022-11-23T13:16:42.424Z,99719.06
2022-11-23T13:19:45.702Z,99725.38
2022-11-23T13:22:18.624Z,99726.02
2022-11-23T13:25:07.786Z,99721.77
2022-11-23T13:27:45.024Z,99729.73
2022-11-23T13:30:51.947Z,99733.61
2022-11-23T13:33:25.270Z,99735.65
2022-11-23T13:36:02.114Z,99734.06
2022-11-23T13:38:43.891Z,99737.51
2022-11-23T13:41:44.151Z,99737.98
2022-11-23T13:44:20.682Z,99736.52
2022-11-23T13:47:11.959Z,99734.67
2022-11-23T13:49:43.977Z,99729.52
2022-11-23T13:52:20.985Z,99725.05
2022-11-23T13:55:10.742Z,99726.45
2022-11-23T13:57:40.619Z,99732.20
2022-11-23T14:00:46.224Z,99739.06
2022-11-23T14:03:42.162Z,99738.62
2022-11-23T14:06:24.536Z,99743.48
2022-11-23T14:09:12.928Z,99746.23
2022-11-23T14:12:00.759Z,99741.23
2022-11-23T14:14:43.681Z,99742.65
2022-11-23T14:17:31.186Z,99741.29
2022-11-23T14:20:10.133Z,99737.27
2022-11-23T14:23:02.334Z,99739.14
2022-11-23T14:25:55.967Z,99736.83
2022-11-23T14:28:55.333Z,99737.54
2022-11-23T14:32:01.024Z,99744.04
2022-11-23T14:34:41.198Z,99745.31
2022-11-23T14:37:22.955Z,99750.77
2022-11-23T14:39:56.644Z,99752.23
2022-11-23T14:42:28.286Z,99755.33
2022-11-23T14:45:02.871Z,99757.53
2022-11-23T14:47:33.717Z,99760.48
2022-11-23T14:50:01.493Z,99764.18
2022-11-23T14:52:33.273Z,99768.42
2022-11-23T14:55:05.848Z,99771.91
2022-11-23T14:57:42.340Z,99772.27
2022-11-23T15:00:38.952Z,99772.52
2022-11-23T15:03:34.573Z,99775.77
2022-11-23T15:06:09.305Z,99774.28
2022-11-23T15:09:04.825Z,99777.27
2022-11-23T15:11:36.476Z,99779.59
2022-11-23T15:14:25.454Z,99780.89
2022-11-23T15:16:53.223Z,99778.38
2022-11-23T15:19:28.978Z,99780.77
2022-11-23T15:21:57.162Z,99780.27
2022-11-23T15:24:26.989Z,99776.15
2022-11-23T15:27:10.824Z,99773.46
2022-11-23T15:29:40.168Z,99773.09
2022-11-23T15:32:41.177Z,99776.30
2022-11-23T15:35:14.211Z,99782.67
2022-11-23T15:37:50.037Z,99781.19
2022-11-23T15:40:19.495Z,99784.93
2022-11-23T15:42:49.731Z,99790.45
2022-11-23T15:46:01.789Z,99787.38
2022-11-23T15:48:35.250Z,99793.52
2022-11-23T15:51:06.320Z,99788.83
2022-11-23T15:53:49.681Z,99790.14
2022-11-23T15:56:29.298Z,99785.98
2022-11-23T15:59:00.222Z,99795.27
2022-11-23T16:01:28.427Z,99794.70
2022-11-23T16:04:02.551Z,99795.73
2022-11-23T16:06:36.685Z,99797.70
2022-11-23T16:09:56.785Z,99797.64
2022-11-23T16:12:33.842Z,99796.76
2022-11-23T16:15:32.657Z,99792.63
2022-11-23T16:18:02.316Z,99790.80
2022-11-23T16:20:31.086Z,99794.14
2022-11-23T16:23:00.671Z,99797.36
2022-11-23T16:25:28.568Z,99796.42
2022-11-23T16:28:06.590Z,99800.97
2022-11-23T16:30:38.377Z,99797.98
2022-11-23T16:33:10.903Z,99796.21
2022-11-23T16:35:38.698Z,99790.48
2022-11-23T16:38:06.823Z,99786.61
2022-11-23T16:40:34.600Z,99788.89
2022-11-23T16:43:04.086Z,99792.68
2022-11-23T16:45:32.925Z,99790.91
2022-11-23T16:48:02.509Z,99791.34
2022-11-23T16:50:32.850Z,99790.25
2022-11-23T16:53:15.843Z,99791.92
2022-11-23T16:55:45.503Z,99798.45
2022-11-23T16:58:15.710Z,99806.81
2022-11-23T17:00:44.027Z,99803.41
2022-11-23T17:03:19.106Z,99799.90
2022-11-23T17:05:48.302Z,99802.04
2022-11-23T17:08:23.043Z,99798.90
2022-11-23T17:10:52.253Z,99803.42
2022-11-23T17:13:26.662Z,99804.16
2022-11-23T17:15:54.444Z,99805.54
2022-11-23T17:18:22.495Z,99803.83
2022-11-23T17:20:50.458Z,99795.25
2022-11-23T17:23:18.342Z,99801.38
2022-11-23T17:25:46.099Z,99800.69
2022-11-23T17:28:17.103Z,99798.55
2022-11-23T17:30:44.990Z,99801.70
2022-11-23T17:33:13.084Z,99803.23
2022-11-23T17:35:41.169Z,99808.48
2022-11-23T17:38:15.358Z,99804.99
2022-11-23T17:40:45.947Z,99804.97
2022-11-23T17:43:14.269Z,99807.40
2022-11-23T17:45:43.703Z,99811.60
2022-11-23T17:48:12.882Z,99816.02
2022-11-23T17:50:40.832Z,99818.48
2022-11-23T17:53:09.885Z,99820.10
2022-11-23T17:55:37.930Z,99821.27
2022-11-23T17:58:05.924Z,99819.81
2022-11-23T18:00:38.286Z,99821.19
2022-11-23T18:03:06.134Z,99827.91
2022-11-23T18:05:34.125Z,99820.38
2022-11-23T18:08:01.979Z,99816.41
2022-11-23T18:10:29.783Z,99819.30
2022-11-23T18:12:57.830Z,99817.71
2022-11-23T18:15:25.998Z,99813.24
2022-11-23T18:17:54.175Z,99809.75
2022-11-23T18:20:22.403Z,99806.58
2022-11-23T18:22:50.415Z,99799.88
2022-11-23T18:25:18.325Z,99793.98
2022-11-23T18:27:45.979Z,99798.05
2022-11-23T18:30:16.502Z,99795.17
2022-11-23T18:32:44.333Z,99798.85
2022-11-23T18:35:12.003Z,99793.96
2022-11-23T18:37:39.759Z,99785.70
2022-11-23T18:40:07.912Z,99790.91
2022-11-23T18:42:35.683Z,99796.07
2022-11-23T18:45:03.788Z,99801.36
2022-11-23T18:47:32.256Z,99806.27
2022-11-23T18:50:06.164Z,99806.45
2022-11-23T18:52:34.660Z,99798.90
2022-11-23T18:55:02.755Z,99802.46
2022-11-23T18:57:30.475Z,99802.06
2022-11-23T18:59:58.930Z,99802.64
2022-11-23T19:02:27.113Z,99798.54
2022-11-23T19:04:54.866Z,99800.87
2022-11-23T19:07:26.818Z,99796.67
2022-11-23T19:09:56.317Z,99794.39
2022-11-23T19:12:24.079Z,99796.40
2022-11-23T19:14:51.919Z,99795.42
2022-11-23T19:17:19.900Z,99798.66
2022-11-23T19:19:47.617Z,99795.06
2022-11-23T19:22:15.286Z,99796.77
2022-11-23T19:24:43.013Z,99801.77
2022-11-23T19:27:10.649Z,99804.42
2022-11-23T19:29:39.436Z,99799.84
2022-11-23T19:32:07.525Z,99800.77
2022-11-23T19:34:35.928Z,99802.29
2022-11-23T19:37:03.601Z,99803.75
2022-11-23T19:39:32.636Z,99800.27
2022-11-23T19:42:00.541Z,99801.52
2022-11-23T19:44:28.323Z,99801.67
2022-11-23T19:46:56.180Z,99798.02
2022-11-23T19:49:25.516Z,99800.90
2022-11-23T19:51:54.137Z,99807.88
2022-11-23T19:54:22.122Z,99807.30
2022-11-23T19:56:51.071Z,99806.30
2022-11-23T19:59:19.191Z,99803.89
2022-11-23T20:01:46.974Z,99807.65
2022-11-23T20:04:15.181Z,99810.50
2022-11-23T20:06:43.611Z,99802.54
2022-11-23T20:09:23.558Z,99809.61
2022-11-23T20:11:51.936Z,99813.77
2022-11-23T20:14:19.904Z,99812.61
2022-11-23T20:16:47.908Z,99812.70
2022-11-23T20:19:15.749Z,99812.56
2022-11-23T20:21:43.883Z,99813.36
2022-11-23T20:24:13.619Z,99817.05
2022-11-23T20:26:42.297Z,99822.88
2022-11-23T20:29:13.685Z,99827.06
2022-11-23T20:31:41.749Z,99826.48
2022-11-23T20:34:14.154Z,99821.66
2022-11-23T20:36:44.598Z,99823.86
2022-11-23T20:39:12.725Z,99821.23
2022-11-23T20:41:40.437Z,99824.64
2022-11-23T20:44:13.448Z,99826.70
2022-11-23T20:49:30.218Z,99820.53
2022-11-23T20:51:58.936Z,99816.88
2022-11-23T20:54:27.089Z,99819.60
2022-11-23T20:56:54.999Z,99818.84
2022-11-23T20:59:23.841Z,99819.90
2022-11-23T21:01:52.408Z,99825.88
2022-11-23T21:04:20.221Z,99831.67
2022-11-23T21:06:47.962Z,99833.61
2022-11-23T21:09:17.054Z,99830.91
2022-11-23T21:12:03.566Z,99833.92
2022-11-23T21:14:32.835Z,99821.31
2022-11-23T21:17:01.195Z,99826.50
2022-11-23T21:19:34.782Z,99827.48
2022-11-23T21:22:14.059Z,99826.23
2022-11-23T21:24:41.855Z,99823.58
2022-11-23T21:27:12.900Z,99819.77
2022-11-23T21:29:40.596Z,99827.23
2022-11-23T21:32:08.404Z,99833.00
2022-11-23T21:34:36.464Z,99836.56
2022-11-23T21:37:04.503Z,99835.14
2022-11-23T21:39:33.007Z,99829.02
2022-11-23T21:42:01.165Z,99828.56
2022-11-23T21:44:29.223Z,99823.42
2022-11-23T21:46:56.998Z,99827.46
2022-11-23T21:49:27.748Z,99825.23
2022-11-23T21:51:55.435Z,99823.67
2022-11-23T21:54:23.114Z,99826.42
2022-11-23T21:56:50.779Z,99826.36
2022-11-23T21:59:18.693Z,99827.95
2022-11-23T22:01:46.410Z,99832.98
2022-11-23T22:04:15.751Z,99831.52
2022-11-23T22:06:45.062Z,99827.89
2022-11-23T22:09:13.729Z,99829.39
2022-11-23T22:11:43.182Z,99830.13
2022-11-23T22:14:13.449Z,99833.04
2022-11-23T22:16:46.229Z,99841.00
2022-11-23T22:19:15.698Z,99839.44
2022-11-23T22:21:45.297Z,99836.98
2022-11-23T22:24:15.478Z,99837.61
2022-11-23T22:26:43.718Z,99831.34
2022-11-23T22:29:11.781Z,99827.55
2022-11-23T22:31:40.260Z,99829.20
2022-11-23T22:34:11.694Z,99836.88
2022-11-23T22:36:39.528Z,99835.70
2022-11-23T22:39:08.041Z,99836.88
2022-11-23T22:41:37.540Z,99839.21
2022-11-23T22:44:07.637Z,99840.38
2022-11-23T22:46:35.812Z,99841.51
2022-11-23T22:49:04.670Z,99834.16
2022-11-23T22:51:33.171Z,99830.38
2022-11-23T22:54:01.701Z,99830.80
2022-11-23T22:56:30.758Z,99831.56
2022-11-23T22:58:59.200Z,99837.02
2022-11-23T23:01:29.401Z,99838.30
2022-11-23T23:03:59.699Z,99835.04
2022-11-23T23:06:30.076Z,99836.98
2022-11-23T23:08:59.068Z,99833.48
2022-11-23T23:11:28.924Z,99834.14
2022-11-23T23:13:56.669Z,99837.80
2022-11-23T23:16:25.357Z,99837.80
2022-11-23T23:18:56.803Z,99841.23
2022-11-23T23:21:25.950Z,99844.88
2022-11-23T23:23:56.231Z,99842.67
2022-11-23T23:26:26.046Z,99840.84
2022-11-23T23:28:54.766Z,99841.27
2022-11-23T23:31:23.643Z,99841.48
2022-11-23T23:33:53.607Z,99840.11
2022-11-23T23:36:23.112Z,99832.10
2022-11-23T23:38:51.171Z,99835.64
2022-11-23T23:41:19.137Z,99831.64
2022-11-23T23:43:48.292Z,99832.51
2022-11-23T23:46:16.704Z,99830.06
2022-11-23T23:48:44.631Z,99835.15
2022-11-23T23:51:18.657Z,99832.27
2022-11-23T23:53:47.271Z,99832.31
2022-11-23T23:56:20.915Z,99833.42
2022-11-23T23:58:48.807Z,99835.06
